^^
Station Historical Data
Daily Summary for November 21, 2021 Units:  English    Metric   Both
Daily Weekly Monthly Yearly
  High: Low: Average:
Temperature: 39.7 °F 33.9 °F 36 °F
Dew Point: 35.8 °F 30.4 °F 32.5 °F
Humidity: 88% 85% 87%
Wind Speed: 4mph 0mph 1.4mph
Wind Gust: 6mph - -
Wind- - SSE
Pressure: 30.16 in 29.82 in -
Precipitation: 0.01 in    
 
 
Tabular Data for November 21, 2021
Time Temperature Dew Point Pressure Wind Wind Speed Wind Gust Humidity Rainfall Rate (Hourly) solar
00:00 37.5 °F 33.7 °F 30.16 in NNE 1 mph 1 mph 86% 0.00 in 0 W/m2
00:05 37.5 °F 33.7 °F 30.16 in South 1 mph 1 mph 86% 0.00 in 0 W/m2
00:10 37.5 °F 33.7 °F 30.16 in SE 1 mph 1 mph 86% 0.00 in 0 W/m2
00:15 37.4 °F 33.6 °F 30.16 in NNE 1 mph 1 mph 86% 0.00 in 0 W/m2
00:20 37.3 °F 33.5 °F 30.16 in NE 1 mph 1 mph 86% 0.00 in 0 W/m2
00:25 37.3 °F 33.5 °F 30.16 in Calm   1 mph 86% 0.00 in 0 W/m2
00:30 37.2 °F 33.4 °F 30.16 in Calm     86% 0.00 in 0 W/m2
00:35 37.2 °F 33.4 °F 30.16 in East 1 mph 1 mph 86% 0.00 in 0 W/m2
00:40 37.2 °F 33.4 °F 30.16 in NE 1 mph 1 mph 86% 0.00 in 0 W/m2
00:45 37.2 °F 33.4 °F 30.16 in ENE 1 mph 1 mph 86% 0.00 in 0 W/m2
00:50 37.1 °F 33.3 °F 30.16 in NE 1 mph 1 mph 86% 0.00 in 0 W/m2
00:55 37.1 °F 33.3 °F 30.16 in NE 1 mph 1 mph 86% 0.00 in 0 W/m2
01:00 37.1 °F 33.3 °F 30.16 in North 1 mph 1 mph 86% 0.00 in 0 W/m2
01:05 37 °F 33.2 °F 30.16 in WNW 1 mph 1 mph 86% 0.00 in 0 W/m2
01:10 36.9 °F 33.1 °F 30.16 in NE 1 mph 1 mph 86% 0.00 in 0 W/m2
01:15 36.8 °F 33.3 °F 30.16 in NW 1 mph 1 mph 87% 0.00 in 0 W/m2
01:20 36.7 °F 33.2 °F 30.15 in NNE 1 mph 1 mph 87% 0.00 in 0 W/m2
01:25 36.6 °F 33.1 °F 30.15 in NNW 1 mph 2 mph 87% 0.00 in 0 W/m2
01:30 36.5 °F 33 °F 30.15 in NE 1 mph 1 mph 87% 0.00 in 0 W/m2
01:35 36.5 °F 33 °F 30.15 in North 1 mph 1 mph 87% 0.00 in 0 W/m2
01:40 36.5 °F 33 °F 30.15 in ENE 1 mph 1 mph 87% 0.00 in 0 W/m2
01:45 36.4 °F 32.9 °F 30.15 in South 1 mph 1 mph 87% 0.00 in 0 W/m2
01:50 36.4 °F 32.9 °F 30.14 in SE 1 mph 1 mph 87% 0.00 in 0 W/m2
01:55 36.2 °F 32.7 °F 30.15 in NE 1 mph 1 mph 87% 0.00 in 0 W/m2
02:00 36.1 °F 32.6 °F 30.15 in North 1 mph 1 mph 87% 0.00 in 0 W/m2
02:05 36.1 °F 32.6 °F 30.15 in NE 1 mph 1 mph 87% 0.00 in 0 W/m2
02:10 36.1 °F 32.9 °F 30.16 in North 1 mph 1 mph 88% 0.00 in 0 W/m2
02:15 35.9 °F 32.7 °F 30.16 in NNW 1 mph 1 mph 88% 0.00 in 0 W/m2
02:20 35.9 °F 32.7 °F 30.16 in North 1 mph 1 mph 88% 0.00 in 0 W/m2
02:25 35.8 °F 32.6 °F 30.16 in NNW 1 mph 1 mph 88% 0.00 in 0 W/m2
02:30 35.7 °F 32.5 °F 30.16 in NNE 1 mph 2 mph 88% 0.00 in 0 W/m2
02:35 35.7 °F 32.5 °F 30.16 in East 1 mph 2 mph 88% 0.00 in 0 W/m2
02:40 35.7 °F 32.5 °F 30.16 in East 1 mph 1 mph 88% 0.00 in 0 W/m2
02:45 35.5 °F 32.3 °F 30.16 in Calm   1 mph 88% 0.00 in 0 W/m2
02:50 35.4 °F 32.2 °F 30.16 in Calm   1 mph 88% 0.00 in 0 W/m2
02:55 35.3 °F 32.1 °F 30.15 in Calm   1 mph 88% 0.00 in 0 W/m2
03:00 35.2 °F 32 °F 30.15 in Calm   1 mph 88% 0.00 in 0 W/m2
03:05 35.1 °F 31.9 °F 30.15 in Calm   1 mph 88% 0.00 in 0 W/m2
03:10 35 °F 31.5 °F 30.15 in Calm   1 mph 87% 0.00 in 0 W/m2
03:20 34.9 °F 31.4 °F 30.15 in WNW 1 mph 1 mph 87% 0.00 in 0 W/m2
03:25 34.9 °F 31.4 °F 30.15 in North 1 mph 1 mph 87% 0.00 in 0 W/m2
03:30 34.8 °F 31.3 °F 30.15 in NNW 1 mph 1 mph 87% 0.00 in 0 W/m2
03:35 34.8 °F 31.3 °F 30.14 in NNW 1 mph 1 mph 87% 0.00 in 0 W/m2
03:40 34.7 °F 31.2 °F 30.14 in NNW 1 mph 2 mph 87% 0.00 in 0 W/m2
03:45 34.7 °F 31.2 °F 30.14 in ENE 1 mph 2 mph 87% 0.00 in 0 W/m2
03:50 34.7 °F 31.2 °F 30.14 in NW 1 mph 1 mph 87% 0.00 in 0 W/m2
03:55 34.7 °F 31.2 °F 30.14 in NNE 1 mph 1 mph 87% 0.00 in 0 W/m2
04:00 34.6 °F 31.1 °F 30.13 in Calm     87% 0.00 in 0 W/m2
04:05 34.6 °F 31.1 °F 30.13 in Calm   1 mph 87% 0.00 in 0 W/m2
04:10 34.6 °F 31.1 °F 30.13 in Calm     87% 0.00 in 0 W/m2
04:15 34.6 °F 31.1 °F 30.13 in Calm   2 mph 87% 0.00 in 0 W/m2
04:20 34.7 °F 31.5 °F 30.13 in SE 1 mph 1 mph 88% 0.00 in 0 W/m2
04:25 34.7 °F 31.2 °F 30.13 in NNE 1 mph 1 mph 87% 0.00 in 0 W/m2
04:30 34.7 °F 31.2 °F 30.13 in ENE 1 mph 1 mph 87% 0.00 in 0 W/m2
04:35 34.7 °F 31.2 °F 30.13 in NNE 1 mph 2 mph 87% 0.00 in 0 W/m2
04:40 34.6 °F 31.1 °F 30.13 in North 1 mph 1 mph 87% 0.00 in 0 W/m2
04:45 34.5 °F 31 °F 30.13 in NNE 1 mph 1 mph 87% 0.00 in 0 W/m2
04:50 34.5 °F 31.3 °F 30.12 in North 1 mph 1 mph 88% 0.00 in 0 W/m2
04:55 34.5 °F 31.3 °F 30.12 in NNW 1 mph 1 mph 88% 0.00 in 0 W/m2
05:00 34.4 °F 30.9 °F 30.12 in North 1 mph 1 mph 87% 0.00 in 0 W/m2
05:05 34.4 °F 30.9 °F 30.12 in East 1 mph 1 mph 87% 0.00 in 0 W/m2
05:10 34.4 °F 31.2 °F 30.12 in SE 1 mph 1 mph 88% 0.00 in 0 W/m2
05:15 34.4 °F 30.9 °F 30.12 in North 1 mph 1 mph 87% 0.00 in 0 W/m2
05:20 34.4 °F 30.9 °F 30.12 in WNW 1 mph 1 mph 87% 0.00 in 0 W/m2
05:25 34.4 °F 30.9 °F 30.12 in North 1 mph 1 mph 87% 0.00 in 0 W/m2
05:30 34.3 °F 30.8 °F 30.12 in North 1 mph 1 mph 87% 0.00 in 0 W/m2
05:35 34.3 °F 30.8 °F 30.12 in North 1 mph 3 mph 87% 0.00 in 0 W/m2
05:40 34.3 °F 30.8 °F 30.11 in WNW 1 mph 1 mph 87% 0.00 in 0 W/m2
05:45 34.2 °F 30.7 °F 30.11 in North 1 mph 1 mph 87% 0.00 in 0 W/m2
05:50 34.3 °F 31.1 °F 30.10 in SSE 1 mph 2 mph 88% 0.00 in 0 W/m2
05:55 34.3 °F 30.8 °F 30.10 in ENE 1 mph 2 mph 87% 0.00 in 0 W/m2
06:00 34.3 °F 30.8 °F 30.10 in South 1 mph 1 mph 87% 0.00 in 0 W/m2
06:10 34.3 °F 30.8 °F 30.11 in North 1 mph 1 mph 87% 0.00 in 0 W/m2
06:15 34.2 °F 30.7 °F 30.10 in NE 1 mph 1 mph 87% 0.00 in 0 W/m2
06:20 34.2 °F 30.7 °F 30.10 in NNW 1 mph 1 mph 87% 0.00 in 0 W/m2
06:25 34.2 °F 30.7 °F 30.10 in SSE 1 mph 1 mph 87% 0.00 in 0 W/m2
06:30 34.2 °F 30.7 °F 30.09 in SE 1 mph 1 mph 87% 0.00 in 0 W/m2
06:35 34.2 °F 30.7 °F 30.09 in East 1 mph 1 mph 87% 0.00 in 0 W/m2
06:40 34.2 °F 30.7 °F 30.09 in NNE 1 mph 1 mph 87% 0.00 in 0 W/m2
06:45 34.2 °F 30.7 °F 30.09 in SSE 1 mph 1 mph 87% 0.00 in 0 W/m2
06:50 34.2 °F 30.7 °F 30.09 in NNE 1 mph 1 mph 87% 0.00 in 0 W/m2
06:55 34.1 °F 30.6 °F 30.09 in South 1 mph 2 mph 87% 0.00 in 0 W/m2
07:00 34 °F 30.5 °F 30.09 in SSE 1 mph 1 mph 87% 0.00 in 0 W/m2
07:05 34 °F 30.5 °F 30.09 in SSE 1 mph 1 mph 87% 0.00 in 0 W/m2
07:10 34 °F 30.5 °F 30.09 in East 1 mph 1 mph 87% 0.00 in 0 W/m2
07:15 34.1 °F 30.6 °F 30.09 in NNW 1 mph 1 mph 87% 0.00 in 0 W/m2
07:20 34.1 °F 30.6 °F 30.08 in NW 1 mph 2 mph 87% 0.00 in 0 W/m2
07:25 34.1 °F 30.6 °F 30.08 in NNW 1 mph 2 mph 87% 0.00 in 0 W/m2
07:30 34.2 °F 31 °F 30.08 in North 1 mph 1 mph 88% 0.00 in 0 W/m2
07:35 34.1 °F 30.9 °F 30.08 in WNW 1 mph 1 mph 88% 0.00 in 0 W/m2
07:40 34.1 °F 30.6 °F 30.08 in WNW 1 mph 1 mph 87% 0.00 in 5 W/m2
07:45 34.1 °F 30.6 °F 30.08 in NNW 1 mph 2 mph 87% 0.00 in 9 W/m2
07:50 34.1 °F 30.9 °F 30.08 in SW 1 mph 1 mph 88% 0.00 in 12 W/m2
07:55 34 °F 30.8 °F 30.07 in WNW 1 mph 1 mph 88% 0.00 in 18 W/m2
08:00 34 °F 30.8 °F 30.07 in NNW 1 mph 1 mph 88% 0.00 in 28 W/m2
08:05 34 °F 30.8 °F 30.07 in ESE 2 mph 3 mph 88% 0.00 in 25 W/m2
08:10 33.9 °F 30.4 °F 30.07 in NW 2 mph 2 mph 87% 0.00 in 25 W/m2
08:15 33.9 °F 30.4 °F 30.07 in North 1 mph 2 mph 87% 0.00 in 26 W/m2
08:20 34 °F 30.8 °F 30.06 in WNW 1 mph 1 mph 88% 0.00 in 30 W/m2
08:25 34 °F 30.5 °F 30.07 in NNW 1 mph 1 mph 87% 0.00 in 35 W/m2
08:30 34.1 °F 30.9 °F 30.06 in NNW 1 mph 2 mph 88% 0.00 in 37 W/m2
08:35 34.2 °F 30.7 °F 30.06 in North 1 mph 2 mph 87% 0.00 in 40 W/m2
08:40 34.2 °F 30.7 °F 30.05 in NNW 1 mph 1 mph 87% 0.00 in 44 W/m2
08:45 34.3 °F 30.8 °F 30.05 in NNW 1 mph 2 mph 87% 0.00 in 44 W/m2
08:50 34.4 °F 30.9 °F 30.04 in East 1 mph 1 mph 87% 0.00 in 44 W/m2
08:55 34.4 °F 30.9 °F 30.04 in North 1 mph 1 mph 87% 0.00 in 47 W/m2
09:00 34.4 °F 30.9 °F 30.04 in NNW 1 mph 1 mph 87% 0.00 in 60 W/m2
09:05 34.6 °F 31.1 °F 30.03 in WNW 1 mph 1 mph 87% 0.00 in 81 W/m2
09:10 34.7 °F 31.2 °F 30.03 in NW 2 mph 2 mph 87% 0.00 in 86 W/m2
09:15 34.8 °F 31.3 °F 30.03 in NNW 2 mph 2 mph 87% 0.00 in 91 W/m2
09:20 34.8 °F 31.3 °F 30.02 in North 2 mph 3 mph 87% 0.00 in 107 W/m2
09:25 35 °F 31.5 °F 30.02 in North 2 mph 3 mph 87% 0.00 in 125 W/m2
09:30 35.1 °F 31.6 °F 30.01 in NNE 2 mph 2 mph 87% 0.00 in 120 W/m2
09:35 35.3 °F 31.8 °F 30.01 in NW 2 mph 2 mph 87% 0.00 in 105 W/m2
09:40 35.4 °F 31.9 °F 30.01 in North 2 mph 2 mph 87% 0.00 in 104 W/m2
09:45 35.6 °F 32.1 °F 30.01 in NNW 2 mph 4 mph 87% 0.00 in 109 W/m2
09:50 35.6 °F 32.1 °F 30.01 in NW 2 mph 2 mph 87% 0.00 in 104 W/m2
09:55 35.7 °F 32.2 °F 30.00 in NE 2 mph 2 mph 87% 0.00 in 102 W/m2
10:00 35.9 °F 32.4 °F 30.00 in NNE 2 mph 2 mph 87% 0.00 in 104 W/m2
10:05 35.9 °F 32.4 °F 30.00 in ENE 2 mph 2 mph 87% 0.00 in 97 W/m2
10:10 36.1 °F 32.6 °F 29.99 in ENE 2 mph 2 mph 87% 0.00 in 98 W/m2
10:15 36.3 °F 32.8 °F 29.99 in North 2 mph 3 mph 87% 0.00 in 100 W/m2
10:20 36.4 °F 32.9 °F 29.99 in NNE 2 mph 2 mph 87% 0.00 in 95 W/m2
10:25 36.5 °F 33 °F 29.99 in North 2 mph 2 mph 87% 0.00 in 93 W/m2
10:30 36.7 °F 33.2 °F 29.99 in NNW 2 mph 2 mph 87% 0.00 in 90 W/m2
10:35 36.8 °F 33.3 °F 29.98 in ESE 2 mph 3 mph 87% 0.00 in 84 W/m2
10:40 36.8 °F 33.3 °F 29.98 in NNW 2 mph 2 mph 87% 0.00 in 83 W/m2
10:45 37 °F 33.5 °F 29.98 in NNE 2 mph 2 mph 87% 0.00 in 90 W/m2
10:50 37.1 °F 33.6 °F 29.98 in ENE 2 mph 2 mph 87% 0.00 in 91 W/m2
11:00 37.3 °F 33.8 °F 29.97 in NNW 2 mph 2 mph 87% 0.00 in 72 W/m2
11:05 37.4 °F 33.9 °F 29.97 in NW 2 mph 2 mph 87% 0.00 in 63 W/m2
11:10 37.5 °F 34 °F 29.97 in NNW 2 mph 2 mph 87% 0.00 in 62 W/m2
11:15 37.7 °F 34.5 °F 29.96 in West 2 mph 2 mph 88% 0.00 in 58 W/m2
11:20 37.9 °F 34.4 °F 29.96 in North 2 mph 2 mph 87% 0.00 in 62 W/m2
11:25 38 °F 34.5 °F 29.95 in NW 2 mph 2 mph 87% 0.00 in 65 W/m2
11:30 38.1 °F 34.6 °F 29.95 in NW 2 mph 2 mph 87% 0.00 in 56 W/m2
11:35 38.2 °F 34.4 °F 29.95 in North 2 mph 2 mph 86% 0.00 in 77 W/m2
11:40 38.3 °F 34.5 °F 29.94 in NW 2 mph 2 mph 86% 0.00 in 72 W/m2
11:45 38.4 °F 34.6 °F 29.94 in NNW 2 mph 2 mph 86% 0.00 in 70 W/m2
11:50 38.5 °F 34.7 °F 29.93 in North 2 mph 2 mph 86% 0.00 in 76 W/m2
11:55 38.6 °F 34.8 °F 29.93 in North 2 mph 3 mph 86% 0.00 in 70 W/m2
12:00 38.7 °F 34.9 °F 29.92 in NNE 2 mph 2 mph 86% 0.00 in 67 W/m2
12:05 38.7 °F 34.9 °F 29.92 in NNW 2 mph 3 mph 86% 0.00 in 63 W/m2
12:10 38.9 °F 34.8 °F 29.91 in NNE 2 mph 2 mph 85% 0.00 in 63 W/m2
12:15 39.1 °F 35 °F 29.91 in NNE 3 mph 4 mph 85% 0.00 in 69 W/m2
12:20 39.2 °F 35.1 °F 29.90 in North 3 mph 3 mph 85% 0.00 in 72 W/m2
12:25 39.3 °F 35.2 °F 29.90 in NNE 3 mph 3 mph 85% 0.00 in 70 W/m2
12:30 39.4 °F 35.3 °F 29.89 in North 3 mph 3 mph 85% 0.00 in 72 W/m2
12:35 39.5 °F 35.4 °F 29.89 in NNE 3 mph 3 mph 85% 0.00 in 70 W/m2
12:40 39.5 °F 35.4 °F 29.89 in North 3 mph 3 mph 85% 0.00 in 65 W/m2
12:45 39.6 °F 35.5 °F 29.89 in WSW 3 mph 3 mph 85% 0.00 in 60 W/m2
12:50 39.5 °F 35.4 °F 29.88 in NE 2 mph 2 mph 85% 0.00 in 47 W/m2
12:55 39.5 °F 35.4 °F 29.88 in WNW 2 mph 2 mph 85% 0.00 in 51 W/m2
13:00 39.4 °F 35.6 °F 29.88 in SE 2 mph 2 mph 86% 0.00 in 53 W/m2
13:05 39.4 °F 35.6 °F 29.87 in SE 2 mph 2 mph 86% 0.00 in 54 W/m2
13:10 39.4 °F 35.6 °F 29.87 in SE 3 mph 3 mph 86% 0.00 in 56 W/m2
13:15 39.5 °F 35.4 °F 29.87 in SSW 3 mph 5 mph 85% 0.00 in 63 W/m2
13:20 39.7 °F 35.6 °F 29.86 in SW 4 mph 4 mph 85% 0.00 in 63 W/m2
13:25 39.7 °F 35.6 °F 29.86 in SE 4 mph 4 mph 85% 0.00 in 65 W/m2
13:30 39.6 °F 35.5 °F 29.85 in SW 3 mph 6 mph 85% 0.00 in 56 W/m2
13:35 39.5 °F 35.7 °F 29.85 in SE 3 mph 6 mph 86% 0.00 in 60 W/m2
13:40 39.3 °F 35.5 °F 29.84 in NE 3 mph 3 mph 86% 0.00 in 67 W/m2
13:45 39.3 °F 35.8 °F 29.84 in NW 3 mph 3 mph 87% 0.00 in 58 W/m2
13:50 39.3 °F 35.8 °F 29.83 in South 3 mph 3 mph 87% 0.00 in 62 W/m2
13:55 39.3 °F 35.8 °F 29.82 in ENE 2 mph 3 mph 87% 0.00 in 46 W/m2
Sand Point, Michigan, USA
Compliments of Weather Underground - 2 mb